ルレオ の空港の天気 - METARとTAF

Lulea / Kallax ( ESPA / LLA ) - スウェーデン ルレオ
飛行場実況気象(Metar)
観測時間01/20 18:50 CET (01/20 17:50 UTC)
風向・風速不定 1m/s
視程10km以上
天気現象
なし
気温-5℃
湿度79%
気圧1008hPa
METARESPA 201750Z VRB02KT CAVOK M05/M08 Q1008
過去の天気等 Google飛行場航空写真 Wunderground天気予報

過去48時間のMETAR

飛行場予報(TAF)
発表時間: 1/20 18:30 CET (1/20 17:30 UTC)
予報対象時間: 20日19時 CET ~ 21日1時 CET
風向・風速西南西 3m/s
視程10km以上
なし
TAF ESPA 201730Z 2018/2024 25005KT CAVOK